createdAt,value
2018-04-14T00:07:00.457Z,0
2018-04-14T00:17:00.437Z,0
2018-04-14T00:27:00.463Z,0
2018-04-14T00:37:00.394Z,0
2018-04-14T00:47:00.493Z,0
2018-04-14T00:57:00.455Z,0
2018-04-14T01:07:00.538Z,0
2018-04-14T01:17:00.510Z,0
2018-04-14T01:27:00.564Z,0
2018-04-14T01:37:00.542Z,0
2018-04-14T01:47:00.476Z,0
2018-04-14T01:57:00.501Z,0
2018-04-14T02:07:00.488Z,0
2018-04-14T02:17:00.575Z,0
2018-04-14T02:27:00.543Z,0
2018-04-14T02:37:00.585Z,0
2018-04-14T02:47:00.575Z,0
2018-04-14T02:57:00.603Z,0
2018-04-14T03:07:00.557Z,0
2018-04-14T03:17:00.623Z,0
2018-04-14T03:27:00.559Z,0
2018-04-14T03:37:00.665Z,0
2018-04-14T03:47:00.646Z,0
2018-04-14T03:57:00.571Z,0
2018-04-14T04:07:00.630Z,0
2018-04-14T04:17:00.601Z,4
2018-04-14T04:27:00.669Z,40
2018-04-14T04:37:00.635Z,108
2018-04-14T04:47:00.905Z,164
2018-04-14T04:57:00.624Z,308
2018-04-14T05:07:00.688Z,444
2018-04-14T05:17:00.656Z,364
2018-04-14T05:27:00.745Z,588
2018-04-14T05:37:00.685Z,732
2018-04-14T05:47:00.759Z,1696
2018-04-14T05:57:00.732Z,1408
2018-04-14T06:07:00.814Z,4340
2018-04-14T06:17:00.742Z,3476
2018-04-14T06:27:00.775Z,5612
2018-04-14T06:37:00.753Z,4748
2018-04-14T06:47:00.708Z,9964
2018-04-14T06:57:00.795Z,11840
2018-04-14T07:07:00.743Z,11960
2018-04-14T07:17:00.816Z,7672
2018-04-14T07:27:00.791Z,11024
2018-04-14T07:37:00.889Z,14908
2018-04-14T07:47:00.783Z,12872
2018-04-14T07:57:00.870Z,9484
2018-04-14T08:07:00.821Z,18496
2018-04-14T08:17:00.907Z,15460
2018-04-14T08:27:00.877Z,18816
2018-04-14T08:37:00.912Z,14148
2018-04-14T08:47:00.888Z,16836
2018-04-14T08:57:00.963Z,20480
2018-04-14T09:07:02.089Z,15496
2018-04-14T09:17:02.084Z,14500
2018-04-14T09:27:01.234Z,13480
2018-04-14T09:37:02.707Z,15028
2018-04-14T09:47:01.075Z,16280
2018-04-14T09:57:01.252Z,16684
2018-04-14T10:07:01.278Z,19168
2018-04-14T10:17:01.191Z,19616
2018-04-14T10:27:01.684Z,12928
2018-04-14T10:37:01.997Z,14804
2018-04-14T10:47:01.015Z,17068
2018-04-14T10:57:01.005Z,16152
2018-04-14T11:07:01.043Z,14608
2018-04-14T11:17:01.015Z,15172
2018-04-14T11:27:01.060Z,16540
2018-04-14T11:37:01.113Z,17432
2018-04-14T11:47:01.087Z,15744
2018-04-14T11:57:01.068Z,15904
2018-04-14T12:07:07.786Z,14692
2018-04-14T12:17:01.246Z,14668
2018-04-14T12:27:01.100Z,16004
2018-04-14T12:37:01.221Z,12792
2018-04-14T12:47:01.142Z,13644
2018-04-14T12:57:01.105Z,12780
2018-04-14T13:07:01.052Z,7492
2018-04-14T13:17:05.811Z,7236
2018-04-14T13:27:02.105Z,8644
2018-04-14T13:37:01.156Z,5796
2018-04-14T13:47:01.156Z,9240
2018-04-14T13:57:01.159Z,6364
2018-04-14T14:07:01.118Z,5592
2018-04-14T14:17:01.111Z,6504
2018-04-14T14:27:01.192Z,6876
2018-04-14T14:37:01.087Z,5092
2018-04-14T14:47:01.069Z,5020
2018-04-14T14:57:01.095Z,4772
2018-04-14T15:07:01.542Z,5036
2018-04-14T15:17:01.248Z,4792
2018-04-14T15:27:01.836Z,4260
2018-04-14T15:37:02.355Z,4104
2018-04-14T15:47:01.632Z,4600
2018-04-14T15:57:01.648Z,4172
2018-04-14T16:07:01.988Z,3628
2018-04-14T16:17:01.237Z,3024
2018-04-14T16:27:01.117Z,5348
2018-04-14T16:37:03.019Z,7620
2018-04-14T16:47:01.263Z,3904
2018-04-14T16:57:01.225Z,3048
2018-04-14T17:07:19.255Z,2232
2018-04-14T17:17:01.069Z,1888
2018-04-14T17:27:01.160Z,1784
2018-04-14T17:37:01.130Z,1536
2018-04-14T17:47:09.696Z,1208
2018-04-14T17:57:01.128Z,908
2018-04-14T18:07:01.153Z,532
2018-04-14T18:17:01.150Z,244
2018-04-14T18:27:01.104Z,104
2018-04-14T18:37:01.136Z,36
2018-04-14T18:47:01.170Z,8
2018-04-14T18:57:01.250Z,4
2018-04-14T19:07:02.087Z,4
2018-04-14T19:17:01.362Z,0
2018-04-14T19:27:01.423Z,0
2018-04-14T19:37:01.230Z,0
2018-04-14T19:47:01.597Z,0
2018-04-14T19:57:01.356Z,4
2018-04-14T20:07:01.653Z,0
2018-04-14T20:17:01.299Z,0
2018-04-14T20:27:01.198Z,0
2018-04-14T20:37:01.250Z,0
2018-04-14T20:47:01.210Z,0
2018-04-14T20:57:01.351Z,0
2018-04-14T21:07:01.729Z,0
2018-04-14T21:17:01.858Z,0
2018-04-14T21:27:02.260Z,0
2018-04-14T21:37:01.212Z,0
2018-04-14T21:47:01.264Z,0
2018-04-14T21:57:01.625Z,0
2018-04-14T22:07:01.708Z,0
2018-04-14T22:17:02.151Z,0
2018-04-14T22:27:01.647Z,0
2018-04-14T22:37:03.248Z,0
2018-04-14T22:47:01.751Z,0
2018-04-14T22:57:01.371Z,0
2018-04-14T23:07:01.355Z,0
2018-04-14T23:17:01.976Z,0
2018-04-14T23:27:02.394Z,0
2018-04-14T23:37:08.779Z,0
2018-04-14T23:47:01.576Z,0
2018-04-14T23:57:05.075Z,0
